createdAt,value
2019-01-24T00:00:14.884Z,49.43
2019-01-24T00:02:43.442Z,46.03
2019-01-24T00:05:12.733Z,47.13
2019-01-24T00:07:41.256Z,47.03
2019-01-24T00:10:12.866Z,41.90
2019-01-24T00:12:41.866Z,39.03
2019-01-24T00:15:11.379Z,38.37
2019-01-24T00:17:39.728Z,48.13
2019-01-24T00:20:11.269Z,43.87
2019-01-24T00:22:39.679Z,41.70
2019-01-24T00:25:09.394Z,44.15
2019-01-24T00:27:37.802Z,39.73
2019-01-24T00:30:11.205Z,40.20
2019-01-24T00:32:39.636Z,40.53
2019-01-24T00:35:08.910Z,43.30
2019-01-24T00:37:37.329Z,37.97
2019-01-24T00:40:10.984Z,42.70
2019-01-24T00:42:39.412Z,44.30
2019-01-24T00:45:09.101Z,40.17
2019-01-24T00:47:37.437Z,40.93
2019-01-24T00:50:08.845Z,40.30
2019-01-24T00:52:37.403Z,44.50
2019-01-24T00:55:08.963Z,43.00
2019-01-24T00:57:37.593Z,42.23
2019-01-24T01:00:11.788Z,38.30
2019-01-24T01:02:40.256Z,39.00
2019-01-24T01:05:13.462Z,42.95
2019-01-24T01:07:42.135Z,37.55
2019-01-24T01:10:12.442Z,42.00
2019-01-24T01:12:40.846Z,43.50
2019-01-24T01:15:14.578Z,41.33
2019-01-24T01:17:43.206Z,49.10
2019-01-24T01:20:15.107Z,48.07
2019-01-24T01:22:44.943Z,52.83
2019-01-24T01:25:14.937Z,42.73
2019-01-24T01:27:43.926Z,45.60
2019-01-24T01:30:15.576Z,57.10
2019-01-24T01:32:44.253Z,49.60
2019-01-24T01:35:13.479Z,50.40
2019-01-24T01:37:41.845Z,51.30
2019-01-24T01:40:13.180Z,52.87
2019-01-24T01:42:41.571Z,43.10
2019-01-24T01:45:12.896Z,45.60
2019-01-24T01:47:41.285Z,44.88
2019-01-24T01:50:11.836Z,50.63
2019-01-24T01:52:40.181Z,50.20
2019-01-24T01:55:08.621Z,44.15
2019-01-24T01:57:37.035Z,44.60
2019-01-24T02:00:10.355Z,44.60
2019-01-24T02:02:38.866Z,46.60
2019-01-24T02:05:09.361Z,49.10
2019-01-24T02:07:38.061Z,49.13
2019-01-24T02:10:10.153Z,51.30
2019-01-24T02:12:38.606Z,52.33
2019-01-24T02:15:10.093Z,45.70
2019-01-24T02:17:38.425Z,56.60
2019-01-24T02:20:11.700Z,48.50
2019-01-24T02:22:39.999Z,55.07
2019-01-24T02:25:10.447Z,50.15
2019-01-24T02:27:38.897Z,49.60
2019-01-24T02:30:09.550Z,55.37
2019-01-24T02:32:37.902Z,52.07
2019-01-24T02:35:08.667Z,55.95
2019-01-24T02:37:37.077Z,57.63
2019-01-24T02:40:08.070Z,50.40
2019-01-24T02:42:36.421Z,54.40
2019-01-24T02:45:09.573Z,56.83
2019-01-24T02:47:37.985Z,55.80
2019-01-24T02:50:10.173Z,58.90
2019-01-24T02:52:38.561Z,56.77
2019-01-24T02:55:10.417Z,55.23
2019-01-24T02:57:38.747Z,62.10
2019-01-24T03:00:12.267Z,60.67
2019-01-24T03:02:41.562Z,53.90
2019-01-24T03:05:13.319Z,62.57
2019-01-24T03:07:41.727Z,66.33
2019-01-24T03:10:13.069Z,60.47
2019-01-24T03:12:42.270Z,64.22
2019-01-24T03:15:14.782Z,55.70
2019-01-24T03:17:43.205Z,61.50
2019-01-24T03:20:13.689Z,64.43
2019-01-24T03:22:42.517Z,62.25
2019-01-24T03:25:13.405Z,59.53
2019-01-24T03:27:41.973Z,58.48
2019-01-24T03:30:13.488Z,61.37
2019-01-24T03:32:41.879Z,66.10
2019-01-24T03:35:14.615Z,64.03
2019-01-24T03:37:43.177Z,64.80
2019-01-24T03:40:13.813Z,62.63
2019-01-24T03:42:42.141Z,61.50
2019-01-24T03:45:13.364Z,60.07
2019-01-24T03:47:42.648Z,68.07
2019-01-24T03:50:15.325Z,66.05
2019-01-24T03:52:43.711Z,69.93
2019-01-24T03:55:13.568Z,62.10
2019-01-24T03:57:41.967Z,62.90
2019-01-24T04:00:13.933Z,73.12
2019-01-24T04:02:42.591Z,63.70
2019-01-24T04:05:12.375Z,65.57
2019-01-24T04:07:40.755Z,72.20
2019-01-24T04:10:14.615Z,63.63
2019-01-24T04:12:43.009Z,67.30
2019-01-24T04:15:15.067Z,65.03
2019-01-24T04:17:43.457Z,71.10
2019-01-24T04:20:12.830Z,56.60
2019-01-24T04:22:41.134Z,71.10
2019-01-24T04:25:09.868Z,64.20
2019-01-24T04:27:38.311Z,57.10
2019-01-24T04:30:10.798Z,69.23
2019-01-24T04:32:39.133Z,64.07
2019-01-24T04:35:09.165Z,62.60
2019-01-24T04:37:37.566Z,65.28
2019-01-24T04:40:09.401Z,64.40
2019-01-24T04:42:37.768Z,65.52
2019-01-24T04:45:09.212Z,61.63
2019-01-24T04:47:37.524Z,56.33
2019-01-24T04:50:09.847Z,61.73
2019-01-24T04:52:38.249Z,63.27
2019-01-24T04:55:09.691Z,70.73
2019-01-24T04:57:38.052Z,79.17
2019-01-24T05:00:12.041Z,67.08
2019-01-24T05:02:40.433Z,58.52
2019-01-24T05:05:09.923Z,60.15
2019-01-24T05:07:38.276Z,72.23
2019-01-24T05:10:07.644Z,70.13
2019-01-24T05:12:36.031Z,64.03
2019-01-24T05:15:05.609Z,59.87
2019-01-24T05:17:34.041Z,56.60
2019-01-24T05:20:02.532Z,58.40
2019-01-24T05:22:31.641Z,63.95
2019-01-24T05:24:59.999Z,64.30
2019-01-24T05:27:28.346Z,68.43
2019-01-24T05:29:56.702Z,67.30
2019-01-24T05:32:25.058Z,56.27
2019-01-24T05:34:53.411Z,65.80
2019-01-24T05:37:22.267Z,71.53
2019-01-24T05:39:50.567Z,65.73
2019-01-24T05:42:18.895Z,73.77
2019-01-24T05:44:47.221Z,73.97
2019-01-24T05:47:15.558Z,70.80
2019-01-24T05:49:44.019Z,61.80
2019-01-24T05:52:19.194Z,71.80
2019-01-24T05:54:43.302Z,59.73
2019-01-24T05:57:12.966Z,62.15
2019-01-24T05:59:41.381Z,66.53
2019-01-24T06:02:10.007Z,66.80
2019-01-24T06:04:38.368Z,66.60
2019-01-24T06:07:06.736Z,65.80
2019-01-24T06:09:35.137Z,63.65
2019-01-24T06:12:03.554Z,71.55
2019-01-24T06:14:31.910Z,64.37
2019-01-24T06:17:00.243Z,69.57
2019-01-24T06:19:28.703Z,68.40
2019-01-24T06:21:57.031Z,69.13
2019-01-24T06:24:25.516Z,67.57
2019-01-24T06:26:53.873Z,69.93
2019-01-24T06:29:48.617Z,66.20
2019-01-24T06:32:16.977Z,74.92
2019-01-24T06:34:45.308Z,62.23
2019-01-24T06:37:13.661Z,66.10
2019-01-24T06:39:42.080Z,58.90
2019-01-24T06:42:10.977Z,64.53
2019-01-24T06:44:39.317Z,69.80
2019-01-24T06:47:07.748Z,58.00
2019-01-24T06:49:36.061Z,68.40
2019-01-24T06:52:04.560Z,67.70
2019-01-24T06:54:32.923Z,68.53
2019-01-24T06:57:01.264Z,70.93
2019-01-24T06:59:29.602Z,58.83
2019-01-24T07:01:57.952Z,63.67
2019-01-24T07:04:26.300Z,72.13
2019-01-24T07:06:54.637Z,68.63
2019-01-24T07:09:22.967Z,62.30
2019-01-24T07:11:51.317Z,70.12
2019-01-24T07:14:19.653Z,67.83
2019-01-24T07:16:48.012Z,69.03
2019-01-24T07:19:16.328Z,70.67
2019-01-24T07:21:44.660Z,66.67
2019-01-24T07:24:13.035Z,71.20
2019-01-24T07:26:41.454Z,71.37
2019-01-24T07:29:09.878Z,63.20
2019-01-24T07:31:38.311Z,73.87
2019-01-24T07:34:06.968Z,68.02
2019-01-24T07:36:35.277Z,67.17
2019-01-24T07:39:06.928Z,66.93
2019-01-24T07:41:35.337Z,62.95
2019-01-24T07:44:03.749Z,60.67
2019-01-24T07:46:32.076Z,74.63
2019-01-24T07:49:00.443Z,70.80
2019-01-24T07:51:28.763Z,65.30
2019-01-24T07:53:57.112Z,67.73
2019-01-24T07:56:25.500Z,72.90
2019-01-24T07:58:53.823Z,66.60
2019-01-24T08:01:22.132Z,75.10
2019-01-24T08:03:50.488Z,74.53
2019-01-24T08:06:18.896Z,75.73
2019-01-24T08:08:47.220Z,65.13
2019-01-24T08:11:15.560Z,70.43
2019-01-24T08:13:43.928Z,74.67
2019-01-24T08:16:12.253Z,70.30
2019-01-24T08:18:40.616Z,75.77
2019-01-24T08:21:09.006Z,77.85
2019-01-24T08:23:37.330Z,68.87
2019-01-24T08:26:05.839Z,68.60
2019-01-24T08:28:34.594Z,72.35
2019-01-24T08:31:02.927Z,81.37
2019-01-24T08:33:31.255Z,75.13
2019-01-24T08:35:59.687Z,74.87
2019-01-24T08:38:28.029Z,77.97
2019-01-24T08:40:56.372Z,77.30
2019-01-24T08:43:24.720Z,84.97
2019-01-24T08:45:54.090Z,81.12
2019-01-24T08:48:22.436Z,86.17
2019-01-24T08:50:50.784Z,91.63
2019-01-24T08:53:19.132Z,70.90
2019-01-24T08:55:47.590Z,74.43
2019-01-24T08:58:15.903Z,80.37
2019-01-24T09:00:44.326Z,82.50
2019-01-24T09:03:12.827Z,75.30
2019-01-24T09:05:41.332Z,75.83
2019-01-24T09:08:09.814Z,64.63
2019-01-24T09:10:38.603Z,78.43
2019-01-24T09:13:07.508Z,69.45
2019-01-24T09:15:36.416Z,76.97
2019-01-24T09:18:05.624Z,66.03
2019-01-24T09:20:35.004Z,74.22
2019-01-24T09:23:04.065Z,77.97
2019-01-24T09:25:32.437Z,63.35
2019-01-24T09:28:00.769Z,71.05
2019-01-24T09:30:29.369Z,76.10
2019-01-24T09:32:57.767Z,75.67
2019-01-24T09:35:26.181Z,71.57
2019-01-24T09:37:54.520Z,72.60
2019-01-24T09:40:23.280Z,73.97
2019-01-24T09:42:51.701Z,77.33
2019-01-24T09:45:23.659Z,73.10
2019-01-24T09:47:53.380Z,74.83
2019-01-24T09:50:23.792Z,70.53
2019-01-24T09:52:52.468Z,77.90
2019-01-24T09:55:20.820Z,86.73
2019-01-24T09:57:49.276Z,82.70
2019-01-24T10:00:20.623Z,83.00
2019-01-24T10:02:48.974Z,82.93
2019-01-24T10:05:17.653Z,79.93
2019-01-24T10:07:46.223Z,80.37
2019-01-24T10:10:17.607Z,81.43
2019-01-24T10:12:45.978Z,77.20
2019-01-24T10:15:16.344Z,78.47
2019-01-24T10:17:45.247Z,81.73
2019-01-24T10:20:16.648Z,82.17
2019-01-24T10:22:45.069Z,77.80
2019-01-24T10:25:15.563Z,86.27
2019-01-24T10:27:44.043Z,79.53
2019-01-24T10:30:16.249Z,80.33
2019-01-24T10:32:44.852Z,80.97
2019-01-24T10:35:13.428Z,81.53
2019-01-24T10:37:41.935Z,93.93
2019-01-24T10:40:14.446Z,95.97
2019-01-24T10:42:42.786Z,74.10
2019-01-24T10:45:14.129Z,81.03
2019-01-24T10:47:42.464Z,87.10
2019-01-24T10:50:13.579Z,89.33
2019-01-24T10:52:41.981Z,89.93
2019-01-24T10:55:14.942Z,81.50
2019-01-24T10:57:43.526Z,87.60
2019-01-24T11:00:17.137Z,75.67
2019-01-24T11:02:45.564Z,81.93
2019-01-24T11:05:16.244Z,64.73
2019-01-24T11:07:44.791Z,82.73
2019-01-24T11:10:15.308Z,75.23
2019-01-24T11:12:43.724Z,78.15
2019-01-24T11:15:15.628Z,78.30
2019-01-24T11:17:43.984Z,79.73
2019-01-24T11:20:15.466Z,79.77
2019-01-24T11:22:44.126Z,86.28
2019-01-24T11:25:15.396Z,66.33
2019-01-24T11:27:43.861Z,78.20
2019-01-24T11:30:18.477Z,83.83
2019-01-24T11:32:46.909Z,80.45
2019-01-24T11:35:18.277Z,83.07
2019-01-24T11:37:46.761Z,70.70
2019-01-24T11:40:16.253Z,73.37
2019-01-24T11:42:45.160Z,85.70
2019-01-24T11:45:15.824Z,78.90
2019-01-24T11:47:44.259Z,76.87
2019-01-24T11:50:14.833Z,82.93
2019-01-24T11:52:43.240Z,81.00
2019-01-24T11:55:14.033Z,80.90
2019-01-24T11:57:42.445Z,80.03
2019-01-24T12:00:17.076Z,85.30
2019-01-24T12:02:45.409Z,79.72
2019-01-24T12:05:13.860Z,73.90
2019-01-24T12:07:42.922Z,84.22
2019-01-24T12:10:14.880Z,87.50
2019-01-24T12:12:43.254Z,77.67
2019-01-24T12:15:14.809Z,69.30
2019-01-24T12:17:44.576Z,80.55
2019-01-24T12:20:15.445Z,78.93
2019-01-24T12:22:43.866Z,76.03
2019-01-24T12:25:12.589Z,66.42
2019-01-24T12:27:41.455Z,75.37
2019-01-24T12:30:16.833Z,69.30
2019-01-24T12:32:45.229Z,83.20
2019-01-24T12:35:13.641Z,79.33
2019-01-24T12:37:42.067Z,71.17
2019-01-24T12:40:10.913Z,80.80
2019-01-24T12:42:40.563Z,75.80
2019-01-24T12:45:13.570Z,81.73
2019-01-24T12:47:41.976Z,75.83
2019-01-24T12:50:13.856Z,87.53
2019-01-24T12:52:42.168Z,79.37
2019-01-24T12:55:11.466Z,88.72
2019-01-24T12:57:39.802Z,71.27
2019-01-24T13:00:10.139Z,79.33
2019-01-24T13:02:38.504Z,75.57
2019-01-24T13:05:08.633Z,76.07
2019-01-24T13:07:37.085Z,69.80
2019-01-24T13:10:10.233Z,75.13
2019-01-24T13:12:38.571Z,76.73
2019-01-24T13:15:10.195Z,82.60
2019-01-24T13:17:38.533Z,76.22
2019-01-24T13:20:11.358Z,85.07
2019-01-24T13:22:39.777Z,68.23
2019-01-24T13:25:11.573Z,70.83
2019-01-24T13:27:40.088Z,71.17
2019-01-24T13:30:12.729Z,75.80
2019-01-24T13:32:41.087Z,70.87
2019-01-24T13:35:10.525Z,85.92
2019-01-24T13:37:38.898Z,70.83
2019-01-24T13:40:12.399Z,73.83
2019-01-24T13:42:40.832Z,67.93
2019-01-24T13:45:13.157Z,72.47
2019-01-24T13:47:42.060Z,71.25
2019-01-24T13:50:12.554Z,72.63
2019-01-24T13:52:40.991Z,83.07
2019-01-24T13:55:09.679Z,79.23
2019-01-24T13:57:38.195Z,80.57
2019-01-24T14:00:11.247Z,75.20
2019-01-24T14:02:40.513Z,70.72
2019-01-24T14:05:13.291Z,76.83
2019-01-24T14:07:41.738Z,79.63
2019-01-24T14:10:12.599Z,82.35
2019-01-24T14:12:41.015Z,82.90
2019-01-24T14:15:12.471Z,73.50
2019-01-24T14:17:40.917Z,80.47
2019-01-24T14:20:12.556Z,72.07
2019-01-24T14:22:40.911Z,72.13
2019-01-24T14:25:12.629Z,80.33
2019-01-24T14:27:42.584Z,67.33
2019-01-24T14:30:16.344Z,73.00
2019-01-24T14:32:45.199Z,75.62
2019-01-24T14:35:13.729Z,71.03
2019-01-24T14:37:42.250Z,66.53
2019-01-24T14:40:13.936Z,75.08
2019-01-24T14:42:42.554Z,72.90
2019-01-24T14:45:14.683Z,85.47
2019-01-24T14:47:42.996Z,79.47
2019-01-24T14:50:15.700Z,69.90
2019-01-24T14:52:44.099Z,78.13
2019-01-24T14:55:13.116Z,75.20
2019-01-24T14:57:41.517Z,77.57
2019-01-24T15:00:14.681Z,86.40
2019-01-24T15:02:44.083Z,74.90
2019-01-24T15:05:12.606Z,79.37
2019-01-24T15:07:46.898Z,77.07
2019-01-24T15:10:13.285Z,76.43
2019-01-24T15:12:41.692Z,77.27
2019-01-24T15:15:13.882Z,75.10
2019-01-24T15:17:42.351Z,73.90
2019-01-24T15:20:13.760Z,78.40
2019-01-24T15:22:42.903Z,86.28
2019-01-24T15:25:14.206Z,76.40
2019-01-24T15:27:42.661Z,72.40
2019-01-24T15:30:15.429Z,80.63
2019-01-24T15:32:43.838Z,84.53
2019-01-24T15:35:12.431Z,81.02
2019-01-24T15:37:40.828Z,81.17
2019-01-24T15:40:12.481Z,86.90
2019-01-24T15:42:40.890Z,82.70
2019-01-24T15:45:12.033Z,78.03
2019-01-24T15:47:40.390Z,80.87
2019-01-24T15:50:11.811Z,84.50
2019-01-24T15:52:40.145Z,78.00
2019-01-24T15:55:09.385Z,90.00
2019-01-24T15:57:37.753Z,76.43
2019-01-24T16:00:11.329Z,77.00
2019-01-24T16:02:39.713Z,92.80
2019-01-24T16:05:10.130Z,78.80
2019-01-24T16:07:38.457Z,76.40
2019-01-24T16:10:11.363Z,72.60
2019-01-24T16:12:40.199Z,79.47
2019-01-24T16:15:12.951Z,67.80
2019-01-24T16:17:41.323Z,78.00
2019-01-24T16:20:13.973Z,78.10
2019-01-24T16:22:42.307Z,80.43
2019-01-24T16:25:13.878Z,83.20
2019-01-24T16:27:42.367Z,74.70
2019-01-24T16:30:16.079Z,69.62
2019-01-24T16:32:44.499Z,72.20
2019-01-24T16:35:14.500Z,72.00
2019-01-24T16:37:42.848Z,66.17
2019-01-24T16:40:14.468Z,70.97
2019-01-24T16:42:42.815Z,74.97
2019-01-24T16:45:15.055Z,68.80
2019-01-24T16:47:43.402Z,74.57
2019-01-24T16:50:14.489Z,78.30
2019-01-24T16:52:42.905Z,74.87
2019-01-24T16:55:15.227Z,78.80
2019-01-24T16:57:44.236Z,72.17
2019-01-24T17:00:17.276Z,72.00
2019-01-24T17:02:45.704Z,70.20
2019-01-24T17:05:15.097Z,74.90
2019-01-24T17:07:43.909Z,74.03
2019-01-24T17:10:16.458Z,71.77
2019-01-24T17:12:44.871Z,71.73
2019-01-24T17:15:15.915Z,76.40
2019-01-24T17:17:44.528Z,71.57
2019-01-24T17:20:18.377Z,70.97
2019-01-24T17:22:46.970Z,73.67
2019-01-24T17:25:15.364Z,81.33
2019-01-24T17:27:46.246Z,78.03
2019-01-24T17:30:18.664Z,78.77
2019-01-24T17:32:47.374Z,77.07
2019-01-24T17:35:16.058Z,77.37
2019-01-24T17:37:44.415Z,69.37
2019-01-24T17:40:16.143Z,72.62
2019-01-24T17:42:44.552Z,87.33
2019-01-24T17:45:15.171Z,75.73
2019-01-24T17:47:44.657Z,87.73
2019-01-24T17:50:14.924Z,89.20
2019-01-24T17:52:43.306Z,89.60
2019-01-24T17:55:17.473Z,84.00
2019-01-24T17:57:45.806Z,81.53
2019-01-24T18:00:17.859Z,90.80
2019-01-24T18:02:46.238Z,82.67
2019-01-24T18:05:15.263Z,80.40
2019-01-24T18:07:43.878Z,73.07
2019-01-24T18:10:17.090Z,83.40
2019-01-24T18:12:45.425Z,79.47
2019-01-24T18:15:17.249Z,92.80
2019-01-24T18:17:45.610Z,85.97
2019-01-24T18:20:18.425Z,76.93
2019-01-24T18:22:48.440Z,81.03
2019-01-24T18:25:16.985Z,87.60
2019-01-24T18:27:45.373Z,77.00
2019-01-24T18:30:16.548Z,76.12
2019-01-24T18:32:45.152Z,80.27
2019-01-24T18:35:13.880Z,81.08
2019-01-24T18:37:42.184Z,73.87
2019-01-24T18:40:12.809Z,84.13
2019-01-24T18:42:41.295Z,74.07
2019-01-24T18:45:12.523Z,90.50
2019-01-24T18:47:40.973Z,86.60
2019-01-24T18:50:13.334Z,78.37
2019-01-24T18:52:41.933Z,75.63
2019-01-24T18:55:11.011Z,82.40
2019-01-24T18:57:39.367Z,83.67
2019-01-24T19:00:12.677Z,73.43
2019-01-24T19:02:41.075Z,77.32
2019-01-24T19:05:12.340Z,74.10
2019-01-24T19:07:40.737Z,82.40
2019-01-24T19:10:12.003Z,80.37
2019-01-24T19:12:40.427Z,80.40
2019-01-24T19:15:13.454Z,90.45
2019-01-24T19:17:41.910Z,74.07
2019-01-24T19:20:12.423Z,78.70
2019-01-24T19:22:40.925Z,84.90
2019-01-24T19:25:15.023Z,83.40
2019-01-24T19:27:43.437Z,88.10
2019-01-24T19:30:19.066Z,76.13
2019-01-24T19:32:47.481Z,91.70
2019-01-24T19:35:15.962Z,82.90
2019-01-24T19:37:44.437Z,73.12
2019-01-24T19:40:16.972Z,80.60
2019-01-24T19:42:45.432Z,87.17
2019-01-24T19:45:17.097Z,75.33
2019-01-24T19:47:45.799Z,72.77
2019-01-24T19:50:16.027Z,81.60
2019-01-24T19:52:44.461Z,80.07
2019-01-24T19:55:14.078Z,79.80
2019-01-24T19:57:42.446Z,87.66
2019-01-24T20:00:14.283Z,86.43
2019-01-24T20:02:43.420Z,79.13
2019-01-24T20:05:15.254Z,70.25
2019-01-24T20:07:43.654Z,74.67
2019-01-24T20:10:15.808Z,78.83
2019-01-24T20:12:44.323Z,76.60
2019-01-24T20:15:17.821Z,89.25
2019-01-24T20:17:46.261Z,86.97
2019-01-24T20:20:17.058Z,85.50
2019-01-24T20:22:45.592Z,93.50
2019-01-24T20:25:15.974Z,96.20
2019-01-24T20:27:44.329Z,83.03
2019-01-24T20:30:16.992Z,86.40
2019-01-24T20:32:45.479Z,84.93
2019-01-24T20:35:17.226Z,74.40
2019-01-24T20:37:45.577Z,81.90
2019-01-24T20:40:15.130Z,85.47
2019-01-24T20:42:43.471Z,80.80
2019-01-24T20:45:13.111Z,86.93
2019-01-24T20:47:41.508Z,81.30
2019-01-24T20:50:12.757Z,78.97
2019-01-24T20:52:41.228Z,93.55
2019-01-24T20:55:12.725Z,75.50
2019-01-24T20:57:41.158Z,92.80
2019-01-24T21:00:14.117Z,82.57
2019-01-24T21:02:42.715Z,77.73
2019-01-24T21:05:13.321Z,79.37
2019-01-24T21:07:41.647Z,82.13
2019-01-24T21:10:14.645Z,86.00
2019-01-24T21:12:43.122Z,80.42
2019-01-24T21:15:14.861Z,80.13
2019-01-24T21:17:43.300Z,76.27
2019-01-24T21:20:17.088Z,81.37
2019-01-24T21:22:46.225Z,76.67
2019-01-24T21:25:17.177Z,88.17
2019-01-24T21:27:45.691Z,70.10
2019-01-24T21:30:18.330Z,77.40
2019-01-24T21:32:47.084Z,85.42
2019-01-24T21:35:15.822Z,81.90
2019-01-24T21:37:44.166Z,86.93
2019-01-24T21:40:14.445Z,79.95
2019-01-24T21:42:42.897Z,79.87
2019-01-24T21:45:15.213Z,76.43
2019-01-24T21:47:43.557Z,73.30
2019-01-24T21:50:15.377Z,79.37
2019-01-24T21:52:44.370Z,83.47
2019-01-24T21:55:14.095Z,87.07
2019-01-24T21:57:42.556Z,84.22
2019-01-24T22:00:16.924Z,73.80
2019-01-24T22:02:45.483Z,80.20
2019-01-24T22:05:14.678Z,76.47
2019-01-24T22:07:43.070Z,74.63
2019-01-24T22:10:16.898Z,71.90
2019-01-24T22:12:45.287Z,70.50
2019-01-24T22:15:16.545Z,58.67
2019-01-24T22:17:44.956Z,50.77
2019-01-24T22:20:15.432Z,68.42
2019-01-24T22:22:44.526Z,59.38
2019-01-24T22:25:18.704Z,45.30
2019-01-24T22:27:47.270Z,43.20
2019-01-24T22:30:20.126Z,37.55
2019-01-24T22:32:48.788Z,31.40
2019-01-24T22:35:17.347Z,40.40
2019-01-24T22:37:45.754Z,42.67
2019-01-24T22:40:15.326Z,35.80
2019-01-24T22:42:43.759Z,32.60
2019-01-24T22:45:16.465Z,41.27
2019-01-24T22:47:44.846Z,34.07
2019-01-24T22:50:15.097Z,34.75
2019-01-24T22:52:44.289Z,40.70
2019-01-24T22:55:13.883Z,37.17
2019-01-24T22:57:42.329Z,38.40
2019-01-24T23:00:18.967Z,35.63
2019-01-24T23:02:47.387Z,29.60
2019-01-24T23:05:16.689Z,39.78
2019-01-24T23:07:45.065Z,36.70
2019-01-24T23:10:14.131Z,34.63
2019-01-24T23:12:42.484Z,31.87
2019-01-24T23:15:11.935Z,34.10
2019-01-24T23:17:40.277Z,33.60
2019-01-24T23:20:12.000Z,33.47
2019-01-24T23:22:40.330Z,31.47
2019-01-24T23:25:09.277Z,34.90
2019-01-24T23:27:37.586Z,37.20
2019-01-24T23:30:10.120Z,37.30
2019-01-24T23:32:38.442Z,37.73
2019-01-24T23:35:07.638Z,35.40
2019-01-24T23:37:35.978Z,34.90
2019-01-24T23:40:06.969Z,37.17
2019-01-24T23:42:35.400Z,29.20
2019-01-24T23:45:06.474Z,29.60
2019-01-24T23:47:35.014Z,40.40
2019-01-24T23:50:04.744Z,39.50
2019-01-24T23:52:33.095Z,33.83
2019-01-24T23:55:01.451Z,34.97
2019-01-24T23:57:29.842Z,34.78
2019-01-24T23:59:58.211Z,41.50
